Dobrodošli na spletni strani vremenske postaje Senovo. Vse informacije so informativnega značaja, saj vremenska postaja ni del državne mreže meteoroloških postaj. OBVESTILO: Letni količini padavin navedeni na spletni strani je potrebno prišteti 98,1 mm, zaradi izgube podatkov.


Veter Od: 11-12-2017 04:00 Do: 12-12-2017 10:59 Opozorilo za: Veter Stopnja: Oranžna info button
Dež Od: 11-12-2017 00:00 Do: 16:59 Opozorilo za: Dež Stopnja: Rumena info button

Pogled proti Armezu več informacij Pogled proti Armezu


Lisca več informacij Lisca


Radar strel več informacij blitzortung!


opozorilo za Dež več informacij rain snow radar


Obiščite še:

Template documentation
and downloads

And another site



Weather Underground, zgodovina - Tekstovno

Dnevni povzetek za Avgust 3, 2017 Enote:  Metrično    Angleško   Obe
« Predhodni Dan
Naslednji Dan »
Dnevni Tedenski Mesečni Letni Po meri
  Višja: Nižja: Povprečje:
Temperatura: 35.2 °C 17.7 °C 25.2 °C
Točka rosišča: 22.1 °C 16.6 °C 19.4 °C
Vlažnost: 95 % 40 % 74 %
Hitrost vetra: 5.8 km/h 0.0 km/h 1.7 km/h
Sunki vetra: 10.5 km/h - -
Veter:- - SW
Zračni tlak: 1023.9 hPa 1013.1 hPa -
Padavine: 1.3 mm    
Historical Graphs
 
 
Tabelarni podarki za Avgust 3, 2017
Čas Temperatura Točka rosišča Zračni tlak Veter Hitrost vetra Sunki vetra Vlažnost Intenziteta padavin (urna)
00:00 20.2 °C 17.2 °C 1023.9 hPa SSW 5.8 km/h 5.8 km/h 83 % 17.3 mm
00:05 20.1 °C 17.3 °C 1022.9 hPa SSW 5.8 km/h 5.8 km/h 84 % 15.2 mm
00:10 20.1 °C 17.3 °C 1022.9 hPa SSW 1.6 km/h 4.0 km/h 84 % 11.7 mm
00:15 20.0 °C 17.4 °C 1022.9 hPa Calm     85 % 8.1 mm
00:20 20.0 °C 17.6 °C 1020.9 hPa Calm     86 % 7.4 mm
00:25 19.9 °C 17.7 °C 1020.9 hPa Calm     87 % 4.8 mm
00:30 19.9 °C 17.7 °C 1020.9 hPa Calm   1.8 km/h 87 % 2.8 mm
00:35 19.9 °C 17.8 °C 1021.9 hPa Calm   1.8 km/h 88 % 2.0 mm
00:40 19.8 °C 17.8 °C 1021.9 hPa Calm     88 % 2.0 mm
00:45 19.8 °C 17.8 °C 1021.9 hPa Calm     88 % 1.8 mm
00:55 19.8 °C 18.1 °C 1020.9 hPa NW 1.9 km/h 10.5 km/h 90 % 1.8 mm
01:00 19.8 °C 18.1 °C 1020.9 hPa NW 4.2 km/h 10.5 km/h 90 % 1.3 mm
01:05 19.8 °C 18.1 °C 1020.9 hPa WNW 4.0 km/h 10.5 km/h 90 % 1.3 mm
01:11 19.7 °C 18.0 °C 1020.9 hPa West 1.8 km/h 3.2 km/h 90 % 1.0 mm
01:16 19.7 °C 18.0 °C 1020.9 hPa West 2.1 km/h 3.2 km/h 90 % 1.0 mm
01:21 19.7 °C 18.0 °C 1019.9 hPa West 2.6 km/h 3.2 km/h 90 % 0.8 mm
01:26 19.6 °C 17.9 °C 1019.9 hPa WNW 2.6 km/h 2.6 km/h 90 % 0.5 mm
01:31 19.6 °C 17.9 °C 1019.9 hPa WSW 3.5 km/h 4.7 km/h 90 % 0.3 mm
01:36 19.6 °C 18.1 °C 1020.9 hPa West 4.2 km/h 4.7 km/h 91 % 0.3 mm
01:41 19.6 °C 17.9 °C 1020.9 hPa WNW 4.7 km/h 4.7 km/h 90 % 0.3 mm
01:46 19.5 °C 18.0 °C 1020.9 hPa WNW 4.7 km/h 4.7 km/h 91 % 0.3 mm
01:51 19.5 °C 18.0 °C 1019.9 hPa WNW 4.7 km/h 4.7 km/h 91 % 0.0 mm
01:56 19.5 °C 18.0 °C 1019.9 hPa WNW 4.7 km/h 4.7 km/h 91 % 0.0 mm
02:01 19.5 °C 18.0 °C 1019.9 hPa WNW 4.7 km/h 4.7 km/h 91 % 0.0 mm
02:06 19.5 °C 18.0 °C 1019.9 hPa WNW 4.7 km/h 4.7 km/h 91 % 0.0 mm
02:11 19.5 °C 18.0 °C 1019.9 hPa WNW 4.7 km/h 4.7 km/h 91 % 0.0 mm
02:16 19.5 °C 18.0 °C 1019.9 hPa WNW 4.7 km/h 4.7 km/h 91 % 0.0 mm
02:21 19.5 °C 18.0 °C 1019.9 hPa WNW 4.7 km/h 4.7 km/h 91 % 0.0 mm
02:26 19.5 °C 18.0 °C 1019.9 hPa WNW 4.7 km/h 4.7 km/h 91 % 0.0 mm
02:31 19.5 °C 18.0 °C 1019.9 hPa WNW 4.7 km/h 4.7 km/h 91 % 0.0 mm
02:36 19.4 °C 17.9 °C 1018.8 hPa WNW 4.7 km/h 4.7 km/h 91 % 0.0 mm
02:41 19.4 °C 17.9 °C 1018.8 hPa WNW 4.7 km/h 4.7 km/h 91 % 0.0 mm
02:46 19.3 °C 17.9 °C 1018.8 hPa WNW 4.7 km/h 4.7 km/h 92 % 0.0 mm
02:51 19.3 °C 17.9 °C 1019.9 hPa WNW 4.7 km/h 4.7 km/h 92 % 0.0 mm
02:56 19.2 °C 17.7 °C 1019.9 hPa WNW 4.7 km/h 4.7 km/h 91 % 0.0 mm
03:01 19.2 °C 17.7 °C 1019.9 hPa WNW 4.7 km/h 4.7 km/h 91 % 0.0 mm
03:06 19.1 °C 17.8 °C 1019.9 hPa WNW 4.7 km/h 4.7 km/h 92 % 0.0 mm
03:11 19.0 °C 17.7 °C 1019.9 hPa WNW 4.7 km/h 4.7 km/h 92 % 0.0 mm
03:16 18.9 °C 17.6 °C 1019.9 hPa WNW 4.7 km/h 4.7 km/h 92 % 0.0 mm
03:21 18.9 °C 17.6 °C 1020.9 hPa WNW 4.7 km/h 4.7 km/h 92 % 0.0 mm
03:26 18.8 °C 17.5 °C 1020.9 hPa WNW 4.7 km/h 4.7 km/h 92 % 0.0 mm
03:31 18.7 °C 17.4 °C 1020.9 hPa WNW 4.7 km/h 4.7 km/h 92 % 0.0 mm
03:36 18.7 °C 17.4 °C 1020.9 hPa WNW 4.7 km/h 4.7 km/h 92 % 0.0 mm
03:41 18.7 °C 17.6 °C 1020.9 hPa WNW 4.7 km/h 4.7 km/h 93 % 0.0 mm
03:46 18.6 °C 17.4 °C 1020.9 hPa WNW 4.7 km/h 4.7 km/h 93 % 0.0 mm
03:51 18.6 °C 17.4 °C 1019.9 hPa WNW 4.7 km/h 4.7 km/h 93 % 0.0 mm
03:56 18.6 °C 17.4 °C 1019.9 hPa WNW 4.7 km/h 4.7 km/h 93 % 0.0 mm
04:01 18.5 °C 17.3 °C 1019.9 hPa WNW 4.7 km/h 4.7 km/h 93 % 0.0 mm
04:06 18.5 °C 17.3 °C 1018.8 hPa WNW 4.7 km/h 4.7 km/h 93 % 0.0 mm
04:11 18.4 °C 17.2 °C 1018.8 hPa WNW 4.7 km/h 4.7 km/h 93 % 0.0 mm
04:16 18.3 °C 17.2 °C 1018.8 hPa WNW 4.7 km/h 4.7 km/h 93 % 0.0 mm
04:21 18.3 °C 17.2 °C 1018.8 hPa Calm     93 % 0.0 mm
04:26 18.2 °C 17.1 °C 1018.8 hPa Calm     93 % 0.0 mm
04:31 18.1 °C 16.9 °C 1018.8 hPa Calm     93 % 0.0 mm
04:36 18.0 °C 16.8 °C 1018.8 hPa Calm     93 % 0.0 mm
04:41 18.0 °C 16.8 °C 1018.8 hPa Calm     93 % 0.0 mm
04:46 18.0 °C 16.8 °C 1018.8 hPa Calm     93 % 0.0 mm
04:51 17.9 °C 16.8 °C 1018.8 hPa Calm     93 % 0.0 mm
04:56 17.8 °C 16.7 °C 1018.8 hPa Calm     93 % 0.0 mm
04:57 17.8 °C 16.8 °C 1018.8 hPa Calm     94 % 0.0 mm
05:02 17.8 °C 16.7 °C 1018.8 hPa Calm     93 % 0.0 mm
05:07 17.7 °C 16.6 °C 1018.8 hPa Calm     93 % 0.0 mm
05:12 17.7 °C 16.7 °C 1018.8 hPa Calm     94 % 0.0 mm
05:22 17.8 °C 16.8 °C 1018.8 hPa Calm     94 % 0.0 mm
05:23 17.8 °C 16.8 °C 1018.8 hPa Calm     94 % 0.0 mm
05:24 17.8 °C 16.8 °C 1018.8 hPa Calm     94 % 0.0 mm
05:25 17.8 °C 16.8 °C 1018.8 hPa Calm     94 % 0.0 mm
05:29 17.8 °C 16.8 °C 1018.8 hPa Calm     94 % 0.0 mm
05:32 17.8 °C 16.8 °C 1018.8 hPa Calm     94 % 0.0 mm
05:35 17.9 °C 16.9 °C 1018.8 hPa Calm     94 % 0.0 mm
05:45 18.0 °C 17.2 °C 1018.8 hPa Calm     95 % 0.0 mm
05:50 18.1 °C 17.3 °C 1019.9 hPa Calm     95 % 0.0 mm
05:55 18.2 °C 17.4 °C 1019.9 hPa Calm     95 % 0.0 mm
06:00 18.2 °C 17.4 °C 1019.9 hPa Calm     95 % 0.0 mm
06:05 18.2 °C 17.4 °C 1019.9 hPa Calm     95 % 0.0 mm
06:10 18.2 °C 17.4 °C 1019.9 hPa Calm     95 % 0.0 mm
06:15 18.3 °C 17.5 °C 1019.9 hPa Calm     95 % 0.0 mm
06:20 18.3 °C 17.5 °C 1019.9 hPa Calm     95 % 0.0 mm
06:26 18.3 °C 17.5 °C 1019.9 hPa Calm     95 % 0.0 mm
06:31 18.3 °C 17.5 °C 1019.9 hPa Calm     95 % 0.0 mm
06:36 18.4 °C 17.6 °C 1019.9 hPa Calm     95 % 0.0 mm
06:41 18.4 °C 17.6 °C 1019.9 hPa Calm     95 % 0.0 mm
06:46 18.4 °C 17.6 °C 1019.9 hPa Calm     95 % 0.0 mm
06:51 18.4 °C 17.6 °C 1020.9 hPa Calm     95 % 0.0 mm
06:56 18.4 °C 17.6 °C 1020.9 hPa Calm     95 % 0.0 mm
07:01 18.5 °C 17.7 °C 1020.9 hPa Calm     95 % 0.0 mm
07:06 18.5 °C 17.7 °C 1020.9 hPa Calm     95 % 0.0 mm
07:11 18.6 °C 17.8 °C 1020.9 hPa Calm     95 % 0.0 mm
07:16 18.6 °C 17.8 °C 1020.9 hPa Calm     95 % 0.0 mm
07:21 18.6 °C 17.8 °C 1019.9 hPa Calm     95 % 0.0 mm
07:26 18.6 °C 17.8 °C 1019.9 hPa Calm     95 % 0.0 mm
07:31 18.7 °C 17.9 °C 1019.9 hPa Calm     95 % 0.0 mm
07:36 18.7 °C 17.9 °C 1019.9 hPa Calm     95 % 0.0 mm
07:41 18.8 °C 18.0 °C 1019.9 hPa Calm     95 % 0.0 mm
07:46 18.8 °C 18.0 °C 1019.9 hPa Calm     95 % 0.0 mm
07:51 18.9 °C 18.1 °C 1019.9 hPa Calm     95 % 0.0 mm
07:56 19.1 °C 18.3 °C 1019.9 hPa Calm     95 % 0.0 mm
08:01 19.1 °C 18.3 °C 1019.9 hPa Calm     95 % 0.0 mm
08:06 19.2 °C 18.4 °C 1020.9 hPa Calm     95 % 0.0 mm
08:11 19.3 °C 18.5 °C 1020.9 hPa Calm     95 % 0.0 mm
08:16 19.4 °C 18.6 °C 1020.9 hPa Calm     95 % 0.0 mm
08:21 19.6 °C 18.8 °C 1018.8 hPa Calm     95 % 0.0 mm
08:26 19.8 °C 19.0 °C 1018.8 hPa Calm     95 % 0.0 mm
08:31 19.8 °C 18.8 °C 1018.8 hPa Calm     94 % 0.0 mm
08:36 20.0 °C 19.0 °C 1019.9 hPa Calm     94 % 0.0 mm
08:41 20.2 °C 19.2 °C 1019.9 hPa Calm     94 % 0.0 mm
08:47 20.7 °C 19.7 °C 1019.9 hPa Calm     94 % 0.0 mm
08:51 20.9 °C 19.7 °C 1019.9 hPa Calm     93 % 0.0 mm
08:56 21.1 °C 19.7 °C 1019.9 hPa Calm     92 % 0.0 mm
09:01 21.3 °C 19.9 °C 1019.9 hPa Calm     92 % 0.0 mm
09:06 21.6 °C 20.1 °C 1019.9 hPa Calm     91 % 0.0 mm
09:11 22.0 °C 20.4 °C 1019.9 hPa Calm     91 % 0.0 mm
09:17 22.4 °C 20.7 °C 1019.9 hPa Calm     90 % 0.0 mm
09:22 22.8 °C 21.1 °C 1019.9 hPa Calm     90 % 0.0 mm
09:27 23.1 °C 21.0 °C 1019.9 hPa Calm     88 % 0.0 mm
09:32 23.4 °C 21.3 °C 1019.9 hPa Calm     88 % 0.0 mm
09:37 23.7 °C 21.2 °C 1019.9 hPa Calm     86 % 0.0 mm
09:42 23.8 °C 21.3 °C 1019.9 hPa Calm     86 % 0.0 mm
09:47 24.1 °C 21.2 °C 1019.9 hPa Calm     84 % 0.0 mm
09:53 24.3 °C 21.2 °C 1020.9 hPa Calm     83 % 0.0 mm
09:58 24.6 °C 21.5 °C 1020.9 hPa Calm     83 % 0.0 mm
10:03 24.9 °C 21.4 °C 1020.9 hPa Calm     81 % 0.0 mm
10:07 25.2 °C 21.5 °C 1019.9 hPa Calm     80 % 0.0 mm
10:13 25.5 °C 21.4 °C 1019.9 hPa Calm     78 % 0.0 mm
10:18 25.6 °C 21.5 °C 1019.9 hPa Calm     78 % 0.0 mm
10:23 25.8 °C 21.2 °C 1019.9 hPa Calm     76 % 0.0 mm
10:28 26.1 °C 21.6 °C 1019.9 hPa Calm   1.4 km/h 76 % 0.0 mm
10:33 26.3 °C 21.3 °C 1019.9 hPa Calm   1.4 km/h 74 % 0.0 mm
10:38 26.6 °C 21.8 °C 1019.9 hPa Calm     75 % 0.0 mm
10:43 26.9 °C 21.9 °C 1019.9 hPa Calm   1.4 km/h 74 % 0.0 mm
10:48 27.1 °C 21.6 °C 1019.9 hPa Calm   1.4 km/h 72 % 0.0 mm
10:53 27.3 °C 21.8 °C 1018.8 hPa SE 0.8 km/h 5.8 km/h 72 % 0.0 mm
10:58 27.6 °C 22.1 °C 1018.8 hPa SE 1.9 km/h 6.1 km/h 72 % 0.0 mm
11:03 27.9 °C 21.9 °C 1018.8 hPa ESE 1.9 km/h 6.1 km/h 70 % 0.0 mm
11:08 28.0 °C 21.3 °C 1018.8 hPa ESE 1.8 km/h 5.8 km/h 67 % 0.0 mm
11:13 28.1 °C 21.6 °C 1018.8 hPa ESE 1.4 km/h 5.5 km/h 68 % 0.0 mm
11:18 28.1 °C 21.4 °C 1018.8 hPa ESE 0.6 km/h 5.5 km/h 67 % 0.0 mm
11:23 28.2 °C 21.5 °C 1018.2 hPa SE 0.5 km/h 5.5 km/h 67 % 0.0 mm
11:28 28.4 °C 21.4 °C 1018.2 hPa SE 0.5 km/h 5.5 km/h 66 % 0.0 mm
11:33 28.6 °C 21.6 °C 1018.2 hPa South 0.5 km/h 4.7 km/h 66 % 0.0 mm
11:38 28.8 °C 21.8 °C 1018.2 hPa SSE 1.6 km/h 5.0 km/h 66 % 0.0 mm
11:43 29.0 °C 21.2 °C 1018.2 hPa ESE 1.3 km/h 5.0 km/h 63 % 0.0 mm
11:48 29.2 °C 21.7 °C 1018.2 hPa ESE 1.3 km/h 5.5 km/h 64 % 0.0 mm
11:53 29.4 °C 21.6 °C 1018.2 hPa SSE 1.4 km/h 5.5 km/h 63 % 0.0 mm
11:58 29.7 °C 21.4 °C 1018.2 hPa WSW 0.3 km/h 4.0 km/h 61 % 0.0 mm
12:03 29.9 °C 21.6 °C 1018.2 hPa East 0.3 km/h 4.7 km/h 61 % 0.0 mm
12:08 30.1 °C 21.2 °C 1016.8 hPa SE 0.6 km/h 5.5 km/h 59 % 0.0 mm
12:13 30.3 °C 21.7 °C 1016.8 hPa SSE 1.1 km/h 6.9 km/h 60 % 0.0 mm
12:18 30.6 °C 21.1 °C 1016.8 hPa SSE 1.4 km/h 6.9 km/h 57 % 0.0 mm
12:23 30.7 °C 21.5 °C 1018.2 hPa SSE 1.9 km/h 6.9 km/h 58 % 0.0 mm
12:28 30.9 °C 21.4 °C 1018.2 hPa SSE 3.1 km/h 6.9 km/h 57 % 0.0 mm
12:33 31.2 °C 21.1 °C 1018.2 hPa SSE 3.9 km/h 6.9 km/h 55 % 0.0 mm
12:38 31.4 °C 21.0 °C 1018.2 hPa SSE 3.5 km/h 6.9 km/h 54 % 0.0 mm
12:39 31.4 °C 20.3 °C 1018.2 hPa SE 3.1 km/h 6.9 km/h 52 % 0.0 mm
12:44 31.7 °C 20.3 °C 1018.2 hPa SSW 2.9 km/h 9.3 km/h 51 % 0.0 mm
12:49 31.7 °C 19.7 °C 1018.2 hPa WSW 3.7 km/h 9.3 km/h 49 % 0.0 mm
12:54 31.9 °C 19.8 °C 1018.2 hPa WSW 3.9 km/h 6.9 km/h 49 % 0.0 mm
12:59 32.0 °C 19.9 °C 1018.2 hPa SW 2.7 km/h 6.9 km/h 49 % 0.0 mm
13:04 32.0 °C 18.9 °C 1018.2 hPa WSW 3.9 km/h 9.7 km/h 46 % 0.0 mm
13:09 32.0 °C 19.3 °C 1018.2 hPa WSW 4.3 km/h 9.7 km/h 47 % 0.0 mm
13:14 32.1 °C 19.4 °C 1018.2 hPa SW 3.4 km/h 7.6 km/h 47 % 0.0 mm
13:19 32.2 °C 19.4 °C 1016.8 hPa WSW 2.4 km/h 5.8 km/h 47 % 0.0 mm
13:24 32.5 °C 20.4 °C 1016.8 hPa SW 1.6 km/h 7.6 km/h 49 % 0.0 mm
13:29 32.6 °C 20.5 °C 1016.8 hPa SW 3.1 km/h 7.6 km/h 49 % 0.0 mm
13:34 32.6 °C 20.5 °C 1016.8 hPa SW 4.2 km/h 7.9 km/h 49 % 0.0 mm
13:39 32.8 °C 20.7 °C 1016.8 hPa SW 3.5 km/h 7.9 km/h 49 % 0.0 mm
13:44 33.0 °C 20.6 °C 1016.8 hPa SW 2.7 km/h 6.4 km/h 48 % 0.0 mm
13:49 33.0 °C 20.2 °C 1016.8 hPa SW 2.3 km/h 6.4 km/h 47 % 0.0 mm
13:54 32.8 °C 20.3 °C 1016.8 hPa South 1.8 km/h 6.4 km/h 48 % 0.0 mm
13:59 32.9 °C 20.4 °C 1016.8 hPa SW 3.1 km/h 6.9 km/h 48 % 0.0 mm
14:04 33.1 °C 20.3 °C 1016.8 hPa SW 3.7 km/h 6.9 km/h 47 % 0.0 mm
14:09 33.3 °C 20.8 °C 1016.8 hPa SE 2.6 km/h 6.1 km/h 48 % 0.0 mm
14:14 33.5 °C 21.0 °C 1016.8 hPa SE 2.9 km/h 6.4 km/h 48 % 0.0 mm
14:19 33.7 °C 20.8 °C 1016.1 hPa SSE 3.7 km/h 6.9 km/h 47 % 0.0 mm
14:24 33.8 °C 20.6 °C 1016.1 hPa SSW 3.9 km/h 6.9 km/h 46 % 0.0 mm
14:29 33.9 °C 20.3 °C 1016.1 hPa SSW 3.9 km/h 6.4 km/h 45 % 0.0 mm
14:30 33.9 °C 20.3 °C 1016.1 hPa SSW 3.5 km/h 6.4 km/h 45 % 0.0 mm
14:35 34.0 °C 20.4 °C 1016.1 hPa SSE 3.1 km/h 6.9 km/h 45 % 0.0 mm
14:40 34.0 °C 20.4 °C 1016.1 hPa SE 3.1 km/h 6.9 km/h 45 % 0.0 mm
14:45 34.0 °C 20.4 °C 1016.1 hPa ESE 2.7 km/h 5.0 km/h 45 % 0.0 mm
14:50 34.1 °C 20.8 °C 1016.1 hPa SE 2.3 km/h 5.5 km/h 46 % 0.0 mm
14:55 34.0 °C 19.7 °C 1016.1 hPa SE 2.4 km/h 6.1 km/h 43 % 0.0 mm
15:00 33.7 °C 19.8 °C 1016.1 hPa ENE 3.4 km/h 6.4 km/h 44 % 0.0 mm
15:05 33.6 °C 20.4 °C 1015.1 hPa ENE 3.5 km/h 6.4 km/h 46 % 0.0 mm
15:09 33.6 °C 20.4 °C 1015.1 hPa ENE 2.9 km/h 5.8 km/h 46 % 0.0 mm
15:14 33.9 °C 20.7 °C 1015.1 hPa SE 3.2 km/h 6.4 km/h 46 % 0.0 mm
15:19 34.0 °C 20.7 °C 1015.1 hPa SSE 3.7 km/h 9.7 km/h 46 % 0.0 mm
15:24 34.1 °C 20.8 °C 1015.1 hPa SE 4.3 km/h 10.5 km/h 46 % 0.0 mm
15:29 34.4 °C 21.1 °C 1015.1 hPa SE 5.6 km/h 10.5 km/h 46 % 0.0 mm
15:34 34.4 °C 20.8 °C 1016.1 hPa SE 4.5 km/h 10.1 km/h 45 % 0.0 mm
15:39 34.4 °C 20.8 °C 1016.1 hPa ESE 2.9 km/h 7.9 km/h 45 % 0.0 mm
15:44 34.5 °C 20.5 °C 1016.1 hPa SSE 3.9 km/h 7.9 km/h 44 % 0.0 mm
15:49 34.6 °C 20.6 °C 1016.1 hPa SSE 4.0 km/h 7.6 km/h 44 % 0.0 mm
15:54 34.7 °C 20.7 °C 1016.1 hPa SSE 3.9 km/h 7.2 km/h 44 % 0.0 mm
15:59 34.7 °C 20.7 °C 1016.1 hPa SE 4.5 km/h 7.2 km/h 44 % 0.0 mm
16:04 34.7 °C 20.7 °C 1016.1 hPa SE 3.9 km/h 6.4 km/h 44 % 0.0 mm
16:09 34.7 °C 20.7 °C 1016.1 hPa South 3.1 km/h 5.8 km/h 44 % 0.0 mm
16:14 34.8 °C 21.1 °C 1016.1 hPa SSW 1.8 km/h 5.5 km/h 45 % 0.0 mm
16:19 34.9 °C 21.2 °C 1016.1 hPa SE 1.0 km/h 4.0 km/h 45 % 0.0 mm
16:24 35.0 °C 21.3 °C 1016.1 hPa SE 1.4 km/h 5.5 km/h 45 % 0.0 mm
16:29 35.0 °C 21.3 °C 1016.1 hPa SE 2.1 km/h 8.7 km/h 45 % 0.0 mm
16:34 35.0 °C 21.3 °C 1016.1 hPa SSE 3.1 km/h 8.7 km/h 45 % 0.0 mm
16:39 35.0 °C 20.9 °C 1016.1 hPa SSE 4.0 km/h 8.7 km/h 44 % 0.0 mm
16:44 35.1 °C 21.0 °C 1016.1 hPa SE 4.7 km/h 8.7 km/h 44 % 0.0 mm
16:49 35.0 °C 20.6 °C 1015.1 hPa SE 3.9 km/h 6.9 km/h 43 % 0.0 mm
16:54 35.2 °C 21.1 °C 1015.1 hPa ESE 3.1 km/h 6.1 km/h 44 % 0.0 mm
16:59 35.2 °C 20.7 °C 1015.1 hPa ESE 2.7 km/h 6.4 km/h 43 % 0.0 mm
17:04 35.1 °C 20.7 °C 1014.1 hPa ESE 3.4 km/h 9.3 km/h 43 % 0.0 mm
17:09 35.0 °C 20.2 °C 1014.1 hPa ESE 2.9 km/h 9.3 km/h 42 % 0.0 mm
17:14 34.9 °C 20.1 °C 1014.1 hPa East 1.6 km/h 5.8 km/h 42 % 0.0 mm
17:19 34.9 °C 20.1 °C 1014.1 hPa East 2.4 km/h 5.8 km/h 42 % 0.0 mm
17:24 35.0 °C 20.2 °C 1014.1 hPa SE 3.5 km/h 6.4 km/h 42 % 0.0 mm
17:29 35.0 °C 20.2 °C 1014.1 hPa South 3.9 km/h 6.9 km/h 42 % 0.0 mm
17:34 34.9 °C 20.1 °C 1014.1 hPa South 3.5 km/h 6.9 km/h 42 % 0.0 mm
17:39 34.9 °C 20.1 °C 1014.1 hPa SSE 2.9 km/h 6.4 km/h 42 % 0.0 mm
17:44 34.9 °C 20.1 °C 1014.1 hPa SSE 3.2 km/h 6.9 km/h 42 % 0.0 mm
17:49 34.7 °C 19.5 °C 1014.1 hPa South 3.5 km/h 8.7 km/h 41 % 0.0 mm
17:54 34.6 °C 19.4 °C 1014.1 hPa South 3.2 km/h 8.7 km/h 41 % 0.0 mm
17:59 34.5 °C 18.9 °C 1014.1 hPa South 1.9 km/h 6.1 km/h 40 % 0.0 mm
18:04 34.3 °C 19.2 °C 1013.1 hPa SE 0.6 km/h 5.5 km/h 41 % 0.0 mm
18:05 34.2 °C 19.1 °C 1013.1 hPa East 0.8 km/h 5.5 km/h 41 % 0.0 mm
18:10 33.6 °C 19.3 °C 1013.1 hPa NE 2.6 km/h 8.7 km/h 43 % 0.0 mm
18:15 32.8 °C 18.9 °C 1013.1 hPa NNE 4.2 km/h 8.7 km/h 44 % 0.0 mm
18:20 32.3 °C 19.2 °C 1014.1 hPa NNW 3.9 km/h 6.1 km/h 46 % 0.0 mm
18:25 31.9 °C 19.2 °C 1014.1 hPa NW 2.9 km/h 4.7 km/h 47 % 0.0 mm
18:30 31.2 °C 20.2 °C 1014.1 hPa NW 1.4 km/h 4.3 km/h 52 % 0.0 mm
18:36 30.6 °C 19.9 °C 1013.1 hPa North 0.3 km/h 3.5 km/h 53 % 0.0 mm
18:41 30.2 °C 19.9 °C 1013.1 hPa NNW 0.6 km/h 4.0 km/h 54 % 0.0 mm
18:46 29.6 °C 20.2 °C 1013.1 hPa NNW 1.4 km/h 4.0 km/h 57 % 0.0 mm
18:51 29.2 °C 20.1 °C 1014.1 hPa NNW 1.3 km/h 4.7 km/h 58 % 0.0 mm
18:56 29.0 °C 20.4 °C 1014.1 hPa NW 1.4 km/h 4.7 km/h 60 % 0.0 mm
19:01 28.8 °C 20.6 °C 1014.1 hPa NW 1.9 km/h 4.0 km/h 61 % 0.0 mm
19:06 28.7 °C 20.4 °C 1013.1 hPa NW 1.4 km/h 4.7 km/h 61 % 0.0 mm
19:11 28.6 °C 20.3 °C 1013.1 hPa NNW 1.9 km/h 5.0 km/h 61 % 0.0 mm
19:16 28.5 °C 20.8 °C 1013.1 hPa NW 2.6 km/h 5.5 km/h 63 % 0.0 mm
19:21 28.4 °C 20.7 °C 1013.1 hPa NNW 2.4 km/h 5.5 km/h 63 % 0.0 mm
19:26 28.3 °C 20.8 °C 1013.1 hPa NNW 2.1 km/h 6.1 km/h 64 % 0.0 mm
19:31 28.0 °C 20.8 °C 1013.1 hPa NNW 2.9 km/h 6.1 km/h 65 % 0.0 mm
19:36 27.9 °C 20.7 °C 1014.1 hPa NNW 2.9 km/h 6.9 km/h 65 % 0.0 mm
19:41 27.7 °C 20.8 °C 1014.1 hPa NW 2.7 km/h 6.9 km/h 66 % 0.0 mm
19:46 27.5 °C 20.8 °C 1014.1 hPa NW 2.4 km/h 5.5 km/h 67 % 0.0 mm
19:51 27.3 °C 20.6 °C 1014.1 hPa NW 2.6 km/h 5.0 km/h 67 % 0.0 mm
19:56 27.1 °C 20.7 °C 1014.1 hPa NW 3.5 km/h 5.0 km/h 68 % 0.0 mm
20:01 26.8 °C 20.4 °C 1014.1 hPa NNW 2.1 km/h 4.7 km/h 68 % 0.0 mm
20:06 26.6 °C 20.7 °C 1014.1 hPa NNW 1.3 km/h 4.7 km/h 70 % 0.0 mm
20:11 26.3 °C 20.6 °C 1014.1 hPa NNW 0.8 km/h 4.0 km/h 71 % 0.0 mm
20:16 26.1 °C 20.4 °C 1014.1 hPa NW 0.3 km/h 3.5 km/h 71 % 0.0 mm
20:21 25.9 °C 20.4 °C 1014.1 hPa NW 1.8 km/h 5.0 km/h 72 % 0.0 mm
20:26 25.7 °C 20.7 °C 1014.1 hPa NW 1.6 km/h 5.0 km/h 74 % 0.0 mm
20:31 25.4 °C 20.4 °C 1014.1 hPa NW 0.3 km/h 2.1 km/h 74 % 0.0 mm
20:36 25.1 °C 20.3 °C 1013.1 hPa Calm     75 % 0.0 mm
20:41 25.0 °C 20.1 °C 1013.1 hPa Calm     74 % 0.0 mm
20:46 24.8 °C 20.1 °C 1013.1 hPa NW 1.0 km/h 4.0 km/h 75 % 0.0 mm
20:51 24.7 °C 20.2 °C 1014.1 hPa NW 1.6 km/h 4.0 km/h 76 % 0.0 mm
20:56 24.6 °C 20.3 °C 1014.1 hPa NW 0.6 km/h 3.5 km/h 77 % 0.0 mm
21:01 24.4 °C 20.1 °C 1014.1 hPa NW 0.3 km/h 3.2 km/h 77 % 0.0 mm
21:06 24.2 °C 19.9 °C 1014.1 hPa NNW 0.2 km/h 2.6 km/h 77 % 0.0 mm
21:11 24.1 °C 19.8 °C 1014.1 hPa Calm     77 % 0.0 mm
21:16 23.9 °C 19.8 °C 1014.1 hPa Calm     78 % 0.0 mm
21:21 23.8 °C 19.7 °C 1014.1 hPa WNW 0.3 km/h 4.0 km/h 78 % 0.0 mm
21:26 23.7 °C 19.8 °C 1014.1 hPa NW 1.0 km/h 4.3 km/h 79 % 0.0 mm
21:31 23.6 °C 19.7 °C 1014.1 hPa NW 1.1 km/h 4.3 km/h 79 % 0.0 mm
21:36 23.5 °C 19.7 °C 1015.1 hPa Calm     79 % 0.0 mm
21:41 23.4 °C 19.8 °C 1015.1 hPa Calm     80 % 0.0 mm
21:46 23.3 °C 19.7 °C 1015.1 hPa Calm     80 % 0.0 mm
21:51 23.3 °C 19.7 °C 1015.1 hPa Calm     80 % 0.0 mm
21:56 23.2 °C 19.8 °C 1015.1 hPa Calm     81 % 0.0 mm
22:01 23.1 °C 19.7 °C 1015.1 hPa Calm     81 % 0.0 mm
22:06 23.0 °C 19.6 °C 1015.1 hPa Calm     81 % 0.0 mm
22:11 22.9 °C 19.7 °C 1015.1 hPa Calm     82 % 0.0 mm
22:16 22.8 °C 19.8 °C 1015.1 hPa Calm     83 % 0.0 mm
22:21 22.7 °C 19.4 °C 1016.1 hPa Calm     82 % 0.0 mm
22:26 22.7 °C 19.7 °C 1016.1 hPa Calm     83 % 0.0 mm
22:31 22.6 °C 19.6 °C 1016.1 hPa Calm     83 % 0.0 mm
22:36 22.6 °C 19.8 °C 1016.1 hPa ESE 0.3 km/h 2.6 km/h 84 % 0.0 mm
22:42 22.5 °C 19.7 °C 1016.1 hPa ESE 0.3 km/h 2.6 km/h 84 % 0.0 mm
22:47 22.4 °C 19.6 °C 1016.1 hPa Calm     84 % 0.0 mm
22:52 22.3 °C 19.7 °C 1016.1 hPa Calm     85 % 0.0 mm
22:57 22.3 °C 19.7 °C 1016.1 hPa Calm     85 % 0.0 mm
23:02 22.2 °C 19.6 °C 1016.1 hPa Calm     85 % 0.0 mm
23:07 22.2 °C 19.7 °C 1016.1 hPa Calm     86 % 0.0 mm
23:12 22.1 °C 19.7 °C 1016.1 hPa Calm     86 % 0.0 mm
23:17 22.0 °C 19.6 °C 1016.1 hPa Calm     86 % 0.0 mm
23:22 22.0 °C 19.6 °C 1016.1 hPa Calm     86 % 0.0 mm
23:27 21.9 °C 19.6 °C 1016.1 hPa Calm     87 % 0.0 mm
23:32 21.9 °C 19.6 °C 1016.1 hPa Calm     87 % 0.0 mm
23:37 21.8 °C 19.6 °C 1016.1 hPa Calm     87 % 0.0 mm
23:42 21.8 °C 19.7 °C 1016.1 hPa Calm     88 % 0.0 mm
23:47 21.7 °C 19.6 °C 1016.1 hPa Calm     88 % 0.0 mm
23:52 21.6 °C 19.5 °C 1016.1 hPa Calm     88 % 0.0 mm
23:57 21.6 °C 19.5 °C 1016.1 hPa Calm     88 % 0.0 mm
Vremenska postaja Senovo
Podatki zbrani iz Weather Underground - 3 mb

Script developed by  Jim McMurry - jmcmurry@mwt.net Adapted for the template by  Wim van der Kuil - Leuven-Template.eu

Vremenski podatki so objavljeni na:

WeatherCloud

Weather Underground

AWEKAS

HAMweather, WeatherForYou, PWS Weather

MapView

Geostik

Slovenia weather network

Oprema, ki se uporablja:

Vremenski program
Cumulus

Cumulus